sensor_id;sensor_type;location;lat;lon;timestamp;pressure;altitude;pressure_sealevel;temperature;humidity
57600;BME280;43426;43.594;24.334;2024-02-23T00:01:55;100819.09;;;4.99;86.82
57600;BME280;43426;43.594;24.334;2024-02-23T00:04:21;100816.91;;;5.14;86.86
57600;BME280;43426;43.594;24.334;2024-02-23T00:06:46;100813.75;;;4.99;86.67
57600;BME280;43426;43.594;24.334;2024-02-23T00:09:11;100811.34;;;4.96;88.20
57600;BME280;43426;43.594;24.334;2024-02-23T00:11:40;100812.28;;;4.85;89.57
57600;BME280;43426;43.594;24.334;2024-02-23T00:14:09;100805.34;;;4.83;89.92
57600;BME280;43426;43.594;24.334;2024-02-23T00:16:40;100803.69;;;4.91;89.22
57600;BME280;43426;43.594;24.334;2024-02-23T00:19:07;100802.63;;;5.04;89.39
57600;BME280;43426;43.594;24.334;2024-02-23T00:21:33;100806.38;;;5.13;88.02
57600;BME280;43426;43.594;24.334;2024-02-23T00:23:58;100802.41;;;5.07;87.90
57600;BME280;43426;43.594;24.334;2024-02-23T00:26:23;100803.19;;;4.98;88.17
57600;BME280;43426;43.594;24.334;2024-02-23T00:28:49;100792.91;;;4.93;89.47
57600;BME280;43426;43.594;24.334;2024-02-23T00:31:14;100789.53;;;5.01;89.64
57600;BME280;43426;43.594;24.334;2024-02-23T00:33:40;100796.91;;;5.08;89.06
57600;BME280;43426;43.594;24.334;2024-02-23T00:36:07;100790.97;;;5.05;89.20
57600;BME280;43426;43.594;24.334;2024-02-23T00:38:32;100799.69;;;4.97;91.08
57600;BME280;43426;43.594;24.334;2024-02-23T00:40:58;100800.25;;;5.01;91.85
57600;BME280;43426;43.594;24.334;2024-02-23T00:43:23;100790.78;;;4.97;92.67
57600;BME280;43426;43.594;24.334;2024-02-23T00:45:49;100805.88;;;4.98;92.52
57600;BME280;43426;43.594;24.334;2024-02-23T00:48:14;100801.94;;;5.02;92.54
57600;BME280;43426;43.594;24.334;2024-02-23T00:50:39;100788.97;;;4.97;91.38
57600;BME280;43426;43.594;24.334;2024-02-23T00:53:05;100789.78;;;4.88;92.11
57600;BME280;43426;43.594;24.334;2024-02-23T00:55:30;100789.44;;;4.81;92.28
57600;BME280;43426;43.594;24.334;2024-02-23T00:57:55;100786.31;;;4.76;92.10
57600;BME280;43426;43.594;24.334;2024-02-23T01:00:21;100787.13;;;4.67;92.57
57600;BME280;43426;43.594;24.334;2024-02-23T01:02:46;100790.44;;;4.59;92.31
57600;BME280;43426;43.594;24.334;2024-02-23T01:05:12;100777.81;;;4.61;92.62
57600;BME280;43426;43.594;24.334;2024-02-23T01:07:38;100783.59;;;4.66;92.66
57600;BME280;43426;43.594;24.334;2024-02-23T01:10:03;100778.53;;;4.63;92.76
57600;BME280;43426;43.594;24.334;2024-02-23T01:12:29;100776.38;;;4.57;92.98
57600;BME280;43426;43.594;24.334;2024-02-23T01:14:54;100781.41;;;4.50;92.88
57600;BME280;43426;43.594;24.334;2024-02-23T01:17:19;100770.25;;;4.45;93.21
57600;BME280;43426;43.594;24.334;2024-02-23T01:19:45;100769.28;;;4.46;94.08
57600;BME280;43426;43.594;24.334;2024-02-23T01:22:10;100769.41;;;4.66;94.32
57600;BME280;43426;43.594;24.334;2024-02-23T01:24:36;100765.56;;;4.58;94.27
57600;BME280;43426;43.594;24.334;2024-02-23T01:27:01;100762.16;;;4.56;94.19
57600;BME280;43426;43.594;24.334;2024-02-23T01:29:26;100760.16;;;4.49;95.26
57600;BME280;43426;43.594;24.334;2024-02-23T01:31:52;100755.66;;;4.49;95.69
57600;BME280;43426;43.594;24.334;2024-02-23T01:34:19;100760.34;;;4.57;95.02
57600;BME280;43426;43.594;24.334;2024-02-23T01:36:44;100761.97;;;4.48;94.00
57600;BME280;43426;43.594;24.334;2024-02-23T01:39:10;100757.28;;;4.40;93.81
57600;BME280;43426;43.594;24.334;2024-02-23T01:41:36;100759.22;;;4.38;91.99
57600;BME280;43426;43.594;24.334;2024-02-23T01:44:01;100760.88;;;4.30;92.54
57600;BME280;43426;43.594;24.334;2024-02-23T01:46:27;100757.47;;;4.28;93.56
57600;BME280;43426;43.594;24.334;2024-02-23T01:48:52;100759.03;;;4.30;93.77
57600;BME280;43426;43.594;24.334;2024-02-23T01:51:18;100756.69;;;4.16;93.39
57600;BME280;43426;43.594;24.334;2024-02-23T01:53:44;100759.91;;;3.98;95.28
57600;BME280;43426;43.594;24.334;2024-02-23T01:56:09;100756.53;;;3.96;95.66
57600;BME280;43426;43.594;24.334;2024-02-23T01:58:36;100762.97;;;3.94;95.81
57600;BME280;43426;43.594;24.334;2024-02-23T02:01:02;100767.34;;;3.95;96.03
57600;BME280;43426;43.594;24.334;2024-02-23T02:03:27;100762.50;;;3.88;97.01
57600;BME280;43426;43.594;24.334;2024-02-23T02:05:53;100766.63;;;3.92;97.30
57600;BME280;43426;43.594;24.334;2024-02-23T02:08:18;100764.00;;;3.81;98.48
57600;BME280;43426;43.594;24.334;2024-02-23T02:10:45;100762.03;;;3.83;98.59
57600;BME280;43426;43.594;24.334;2024-02-23T02:13:11;100766.66;;;3.81;99.13
57600;BME280;43426;43.594;24.334;2024-02-23T02:15:36;100757.09;;;3.79;98.84
57600;BME280;43426;43.594;24.334;2024-02-23T02:18:03;100768.06;;;3.64;98.37
57600;BME280;43426;43.594;24.334;2024-02-23T02:20:28;100765.91;;;3.47;98.38
57600;BME280;43426;43.594;24.334;2024-02-23T02:22:57;100765.28;;;3.43;98.33
57600;BME280;43426;43.594;24.334;2024-02-23T02:25:22;100769.19;;;3.39;98.57
57600;BME280;43426;43.594;24.334;2024-02-23T02:27:47;100771.97;;;3.37;97.92
57600;BME280;43426;43.594;24.334;2024-02-23T02:30:13;100768.22;;;3.40;97.32
57600;BME280;43426;43.594;24.334;2024-02-23T02:32:38;100778.03;;;3.39;97.80
57600;BME280;43426;43.594;24.334;2024-02-23T02:35:04;100768.47;;;3.37;99.04
57600;BME280;43426;43.594;24.334;2024-02-23T02:37:29;100772.22;;;3.34;99.57
57600;BME280;43426;43.594;24.334;2024-02-23T02:39:55;100768.22;;;3.40;100.00
57600;BME280;43426;43.594;24.334;2024-02-23T02:42:20;100767.84;;;3.45;99.53
57600;BME280;43426;43.594;24.334;2024-02-23T02:44:45;100773.53;;;3.40;99.57
57600;BME280;43426;43.594;24.334;2024-02-23T02:47:11;100772.09;;;3.36;99.22
57600;BME280;43426;43.594;24.334;2024-02-23T02:49:36;100779.47;;;3.32;99.58
57600;BME280;43426;43.594;24.334;2024-02-23T02:52:01;100781.69;;;3.27;99.72
57600;BME280;43426;43.594;24.334;2024-02-23T02:54:27;100780.81;;;3.27;100.00
57600;BME280;43426;43.594;24.334;2024-02-23T02:56:52;100780.00;;;3.26;100.00
57600;BME280;43426;43.594;24.334;2024-02-23T02:59:19;100778.28;;;3.25;100.00
57600;BME280;43426;43.594;24.334;2024-02-23T03:01:45;100779.88;;;3.28;100.00
57600;BME280;43426;43.594;24.334;2024-02-23T03:04:12;100786.28;;;3.25;100.00
57600;BME280;43426;43.594;24.334;2024-02-23T03:06:37;100787.03;;;3.27;99.79
57600;BME280;43426;43.594;24.334;2024-02-23T03:09:02;100785.69;;;3.21;100.00
57600;BME280;43426;43.594;24.334;2024-02-23T03:11:28;100788.25;;;3.12;99.72
57600;BME280;43426;43.594;24.334;2024-02-23T03:13:54;100798.78;;;3.02;100.00
57600;BME280;43426;43.594;24.334;2024-02-23T03:16:20;100796.59;;;3.07;99.29
57600;BME280;43426;43.594;24.334;2024-02-23T03:18:48;100800.00;;;2.98;98.81
57600;BME280;43426;43.594;24.334;2024-02-23T03:21:14;100800.72;;;2.88;98.52
57600;BME280;43426;43.594;24.334;2024-02-23T03:23:40;100803.50;;;2.87;98.43
57600;BME280;43426;43.594;24.334;2024-02-23T03:26:07;100809.66;;;2.76;99.77
57600;BME280;43426;43.594;24.334;2024-02-23T03:28:32;100808.31;;;2.70;100.00
57600;BME280;43426;43.594;24.334;2024-02-23T03:30:58;100811.22;;;2.67;100.00
57600;BME280;43426;43.594;24.334;2024-02-23T03:33:23;100812.06;;;2.68;100.00
57600;BME280;43426;43.594;24.334;2024-02-23T03:35:48;100807.56;;;2.68;100.00
57600;BME280;43426;43.594;24.334;2024-02-23T03:38:14;100814.16;;;2.76;100.00
57600;BME280;43426;43.594;24.334;2024-02-23T03:40:39;100817.53;;;2.78;100.00
57600;BME280;43426;43.594;24.334;2024-02-23T03:43:04;100810.75;;;2.73;100.00
57600;BME280;43426;43.594;24.334;2024-02-23T03:45:31;100807.69;;;2.67;100.00
57600;BME280;43426;43.594;24.334;2024-02-23T03:47:56;100807.94;;;2.64;100.00
57600;BME280;43426;43.594;24.334;2024-02-23T03:50:21;100805.16;;;2.65;100.00
57600;BME280;43426;43.594;24.334;2024-02-23T03:52:47;100808.50;;;2.56;100.00
57600;BME280;43426;43.594;24.334;2024-02-23T03:55:12;100811.78;;;2.48;100.00
57600;BME280;43426;43.594;24.334;2024-02-23T03:57:37;100807.91;;;2.41;100.00
57600;BME280;43426;43.594;24.334;2024-02-23T04:00:03;100801.81;;;2.39;100.00
57600;BME280;43426;43.594;24.334;2024-02-23T04:02:28;100805.22;;;2.41;100.00
57600;BME280;43426;43.594;24.334;2024-02-23T04:04:54;100804.63;;;2.49;100.00
57600;BME280;43426;43.594;24.334;2024-02-23T04:07:19;100806.69;;;2.45;100.00
57600;BME280;43426;43.594;24.334;2024-02-23T04:09:44;100802.59;;;2.52;100.00
57600;BME280;43426;43.594;24.334;2024-02-23T04:12:10;100812.75;;;2.59;100.00
57600;BME280;43426;43.594;24.334;2024-02-23T04:14:35;100803.09;;;2.58;100.00
57600;BME280;43426;43.594;24.334;2024-02-23T04:17:04;100809.16;;;2.60;100.00
57600;BME280;43426;43.594;24.334;2024-02-23T04:19:29;100807.22;;;2.62;100.00
57600;BME280;43426;43.594;24.334;2024-02-23T04:21:55;100797.88;;;2.56;100.00
57600;BME280;43426;43.594;24.334;2024-02-23T04:24:20;100798.72;;;2.57;100.00
57600;BME280;43426;43.594;24.334;2024-02-23T04:26:46;100802.97;;;2.59;100.00
57600;BME280;43426;43.594;24.334;2024-02-23T04:29:11;100805.63;;;2.59;100.00
57600;BME280;43426;43.594;24.334;2024-02-23T04:31:37;100812.88;;;2.57;100.00
57600;BME280;43426;43.594;24.334;2024-02-23T04:34:03;100809.56;;;2.42;99.67
57600;BME280;43426;43.594;24.334;2024-02-23T04:36:28;100812.72;;;2.36;100.00
57600;BME280;43426;43.594;24.334;2024-02-23T04:38:54;100817.53;;;2.31;100.00
57600;BME280;43426;43.594;24.334;2024-02-23T04:41:20;100819.00;;;2.35;100.00
57600;BME280;43426;43.594;24.334;2024-02-23T04:43:46;100814.56;;;2.11;100.00
57600;BME280;43426;43.594;24.334;2024-02-23T04:46:11;100818.06;;;2.12;100.00
57600;BME280;43426;43.594;24.334;2024-02-23T04:48:37;100816.94;;;2.03;100.00
57600;BME280;43426;43.594;24.334;2024-02-23T04:51:03;100814.63;;;1.98;100.00
57600;BME280;43426;43.594;24.334;2024-02-23T04:53:28;100812.25;;;2.07;100.00
57600;BME280;43426;43.594;24.334;2024-02-23T04:55:53;100810.41;;;2.07;100.00
57600;BME280;43426;43.594;24.334;2024-02-23T04:58:19;100815.03;;;2.05;100.00
57600;BME280;43426;43.594;24.334;2024-02-23T05:00:46;100812.41;;;2.16;100.00
57600;BME280;43426;43.594;24.334;2024-02-23T05:03:11;100812.41;;;2.16;100.00
57600;BME280;43426;43.594;24.334;2024-02-23T05:05:36;100817.97;;;2.13;100.00
57600;BME280;43426;43.594;24.334;2024-02-23T05:08:02;100818.41;;;2.07;100.00
57600;BME280;43426;43.594;24.334;2024-02-23T05:10:27;100812.38;;;2.05;100.00
57600;BME280;43426;43.594;24.334;2024-02-23T05:12:53;100828.53;;;2.02;100.00
57600;BME280;43426;43.594;24.334;2024-02-23T05:15:18;100821.03;;;1.96;100.00
57600;BME280;43426;43.594;24.334;2024-02-23T05:17:44;100814.78;;;2.08;100.00
57600;BME280;43426;43.594;24.334;2024-02-23T05:20:09;100819.63;;;2.14;100.00
57600;BME280;43426;43.594;24.334;2024-02-23T05:22:38;100829.44;;;2.14;100.00
57600;BME280;43426;43.594;24.334;2024-02-23T05:25:04;100829.81;;;2.09;100.00
57600;BME280;43426;43.594;24.334;2024-02-23T05:27:32;100826.38;;;2.07;100.00
57600;BME280;43426;43.594;24.334;2024-02-23T05:29:58;100830.75;;;2.08;100.00
57600;BME280;43426;43.594;24.334;2024-02-23T05:32:23;100831.47;;;2.10;100.00
57600;BME280;43426;43.594;24.334;2024-02-23T05:34:48;100833.34;;;2.21;100.00
57600;BME280;43426;43.594;24.334;2024-02-23T05:37:18;100840.97;;;2.26;100.00
57600;BME280;43426;43.594;24.334;2024-02-23T05:39:43;100835.66;;;2.26;100.00
57600;BME280;43426;43.594;24.334;2024-02-23T05:42:11;100837.72;;;2.22;100.00
57600;BME280;43426;43.594;24.334;2024-02-23T05:44:36;100845.31;;;2.15;100.00
57600;BME280;43426;43.594;24.334;2024-02-23T05:47:02;100846.22;;;2.03;99.91
57600;BME280;43426;43.594;24.334;2024-02-23T05:49:27;100857.03;;;1.89;100.00
57600;BME280;43426;43.594;24.334;2024-02-23T05:51:53;100849.09;;;2.00;100.00
57600;BME280;43426;43.594;24.334;2024-02-23T05:54:18;100848.09;;;2.14;100.00
57600;BME280;43426;43.594;24.334;2024-02-23T05:56:44;100854.84;;;2.42;100.00
57600;BME280;43426;43.594;24.334;2024-02-23T05:59:09;100849.75;;;2.75;100.00
57600;BME280;43426;43.594;24.334;2024-02-23T06:01:34;100851.75;;;3.18;100.00
57600;BME280;43426;43.594;24.334;2024-02-23T06:04:00;100850.44;;;3.46;99.86
57600;BME280;43426;43.594;24.334;2024-02-23T06:06:25;100853.03;;;3.80;97.96
57600;BME280;43426;43.594;24.334;2024-02-23T06:08:50;100843.84;;;4.17;96.10
57600;BME280;43426;43.594;24.334;2024-02-23T06:11:16;100851.72;;;4.51;95.46
57600;BME280;43426;43.594;24.334;2024-02-23T06:13:43;100854.72;;;4.78;93.88
57600;BME280;43426;43.594;24.334;2024-02-23T06:16:11;100849.16;;;5.13;90.78
57600;BME280;43426;43.594;24.334;2024-02-23T06:18:38;100851.06;;;5.32;89.58
57600;BME280;43426;43.594;24.334;2024-02-23T06:21:14;100852.94;;;5.41;89.84
57600;BME280;43426;43.594;24.334;2024-02-23T06:23:40;100848.09;;;5.66;89.35
57600;BME280;43426;43.594;24.334;2024-02-23T06:26:06;100843.38;;;5.89;87.78
57600;BME280;43426;43.594;24.334;2024-02-23T06:28:31;100850.88;;;6.05;86.60
57600;BME280;43426;43.594;24.334;2024-02-23T06:30:58;100850.88;;;6.24;85.77
57600;BME280;43426;43.594;24.334;2024-02-23T06:33:23;100846.69;;;6.51;85.74
57600;BME280;43426;43.594;24.334;2024-02-23T06:35:48;100854.97;;;6.87;83.90
57600;BME280;43426;43.594;24.334;2024-02-23T06:38:14;100856.88;;;7.14;82.31
57600;BME280;43426;43.594;24.334;2024-02-23T06:40:40;100856.16;;;7.50;80.63
57600;BME280;43426;43.594;24.334;2024-02-23T06:43:05;100861.28;;;7.71;80.28
57600;BME280;43426;43.594;24.334;2024-02-23T06:45:30;100852.78;;;8.04;78.35
57600;BME280;43426;43.594;24.334;2024-02-23T06:47:56;100859.31;;;8.37;76.51
57600;BME280;43426;43.594;24.334;2024-02-23T06:50:21;100854.34;;;8.60;73.66
57600;BME280;43426;43.594;24.334;2024-02-23T06:52:46;100853.69;;;8.84;72.59
57600;BME280;43426;43.594;24.334;2024-02-23T06:55:13;100848.13;;;9.12;71.66
57600;BME280;43426;43.594;24.334;2024-02-23T06:57:38;100839.31;;;9.28;72.17
57600;BME280;43426;43.594;24.334;2024-02-23T07:00:04;100845.47;;;9.47;70.16
57600;BME280;43426;43.594;24.334;2024-02-23T07:02:30;100843.19;;;9.60;69.59
57600;BME280;43426;43.594;24.334;2024-02-23T07:04:57;100847.50;;;9.87;68.99
57600;BME280;43426;43.594;24.334;2024-02-23T07:07:23;100842.63;;;10.08;67.80
57600;BME280;43426;43.594;24.334;2024-02-23T07:09:49;100852.00;;;10.38;67.10
57600;BME280;43426;43.594;24.334;2024-02-23T07:12:15;100844.06;;;10.78;65.15
57600;BME280;43426;43.594;24.334;2024-02-23T07:14:42;100853.50;;;11.06;63.61
57600;BME280;43426;43.594;24.334;2024-02-23T07:17:08;100850.41;;;11.26;63.00
57600;BME280;43426;43.594;24.334;2024-02-23T07:19:33;100845.19;;;11.64;62.46
57600;BME280;43426;43.594;24.334;2024-02-23T07:21:58;100844.56;;;11.93;61.50
57600;BME280;43426;43.594;24.334;2024-02-23T07:24:24;100843.53;;;12.26;59.97
57600;BME280;43426;43.594;24.334;2024-02-23T07:26:49;100841.59;;;12.58;59.37
57600;BME280;43426;43.594;24.334;2024-02-23T07:29:14;100832.72;;;12.87;58.62
57600;BME280;43426;43.594;24.334;2024-02-23T07:31:40;100840.69;;;13.19;57.89
57600;BME280;43426;43.594;24.334;2024-02-23T07:34:05;100834.75;;;13.53;54.73
57600;BME280;43426;43.594;24.334;2024-02-23T07:36:30;100836.88;;;13.73;54.08
57600;BME280;43426;43.594;24.334;2024-02-23T07:38:56;100832.22;;;14.03;53.37
57600;BME280;43426;43.594;24.334;2024-02-23T07:41:22;100837.78;;;14.38;51.75
57600;BME280;43426;43.594;24.334;2024-02-23T07:43:47;100835.81;;;14.69;50.58
57600;BME280;43426;43.594;24.334;2024-02-23T07:46:12;100833.31;;;14.95;48.87
57600;BME280;43426;43.594;24.334;2024-02-23T07:48:38;100838.28;;;14.92;52.76
57600;BME280;43426;43.594;24.334;2024-02-23T07:51:04;100825.75;;;14.91;52.41
57600;BME280;43426;43.594;24.334;2024-02-23T07:53:30;100835.13;;;15.17;51.80
57600;BME280;43426;43.594;24.334;2024-02-23T07:55:56;100836.13;;;15.50;51.28
57600;BME280;43426;43.594;24.334;2024-02-23T07:58:24;100837.16;;;15.85;49.21
57600;BME280;43426;43.594;24.334;2024-02-23T08:00:51;100822.19;;;16.15;48.07
57600;BME280;43426;43.594;24.334;2024-02-23T08:03:16;100827.69;;;16.42;46.13
57600;BME280;43426;43.594;24.334;2024-02-23T08:05:42;100821.41;;;16.48;45.61
57600;BME280;43426;43.594;24.334;2024-02-23T08:08:07;100827.25;;;16.65;45.23
57600;BME280;43426;43.594;24.334;2024-02-23T08:10:32;100825.19;;;16.94;43.90
57600;BME280;43426;43.594;24.334;2024-02-23T08:12:58;100831.06;;;16.98;43.68
57600;BME280;43426;43.594;24.334;2024-02-23T08:15:24;100836.50;;;16.64;44.50
57600;BME280;43426;43.594;24.334;2024-02-23T08:17:49;100833.13;;;16.56;44.01
57600;BME280;43426;43.594;24.334;2024-02-23T08:20:14;100834.81;;;16.57;44.01
57600;BME280;43426;43.594;24.334;2024-02-23T08:22:40;100831.47;;;16.75;43.40
57600;BME280;43426;43.594;24.334;2024-02-23T08:25:05;100825.19;;;16.74;45.21
57600;BME280;43426;43.594;24.334;2024-02-23T08:27:31;100833.19;;;16.89;43.12
57600;BME280;43426;43.594;24.334;2024-02-23T08:29:56;100836.91;;;17.08;44.63
57600;BME280;43426;43.594;24.334;2024-02-23T08:32:21;100836.44;;;17.38;44.31
57600;BME280;43426;43.594;24.334;2024-02-23T08:34:47;100833.03;;;17.56;43.87
57600;BME280;43426;43.594;24.334;2024-02-23T08:37:12;100831.22;;;17.88;42.25
57600;BME280;43426;43.594;24.334;2024-02-23T08:39:38;100834.97;;;18.01;41.34
57600;BME280;43426;43.594;24.334;2024-02-23T08:42:03;100828.34;;;18.22;40.87
57600;BME280;43426;43.594;24.334;2024-02-23T08:44:28;100829.66;;;18.45;39.57
57600;BME280;43426;43.594;24.334;2024-02-23T08:46:54;100828.13;;;18.55;39.22
57600;BME280;43426;43.594;24.334;2024-02-23T08:49:19;100828.59;;;18.46;38.15
57600;BME280;43426;43.594;24.334;2024-02-23T08:51:44;100825.88;;;18.71;36.95
57600;BME280;43426;43.594;24.334;2024-02-23T08:54:10;100829.78;;;18.82;36.72
57600;BME280;43426;43.594;24.334;2024-02-23T08:56:38;100818.09;;;19.00;35.96
57600;BME280;43426;43.594;24.334;2024-02-23T08:59:04;100821.72;;;18.94;35.13
57600;BME280;43426;43.594;24.334;2024-02-23T09:01:30;100816.25;;;18.94;35.10
57600;BME280;43426;43.594;24.334;2024-02-23T09:03:55;100813.22;;;19.02;36.67
57600;BME280;43426;43.594;24.334;2024-02-23T09:06:20;100810.13;;;19.17;36.25
57600;BME280;43426;43.594;24.334;2024-02-23T09:08:46;100804.66;;;19.54;34.52
57600;BME280;43426;43.594;24.334;2024-02-23T09:11:11;100806.47;;;19.60;34.76
57600;BME280;43426;43.594;24.334;2024-02-23T09:13:38;100811.19;;;19.53;34.08
57600;BME280;43426;43.594;24.334;2024-02-23T09:16:03;100808.53;;;19.46;33.25
57600;BME280;43426;43.594;24.334;2024-02-23T09:18:29;100813.31;;;19.14;33.92
57600;BME280;43426;43.594;24.334;2024-02-23T09:20:55;100811.22;;;19.34;34.45
57600;BME280;43426;43.594;24.334;2024-02-23T09:23:20;100807.44;;;19.66;34.28
57600;BME280;43426;43.594;24.334;2024-02-23T09:25:45;100809.38;;;19.65;31.80
57600;BME280;43426;43.594;24.334;2024-02-23T09:28:11;100813.09;;;19.71;31.66
57600;BME280;43426;43.594;24.334;2024-02-23T09:30:36;100812.69;;;19.67;30.62
57600;BME280;43426;43.594;24.334;2024-02-23T09:33:02;100813.69;;;19.54;30.85
57600;BME280;43426;43.594;24.334;2024-02-23T09:35:27;100817.41;;;19.79;30.15
57600;BME280;43426;43.594;24.334;2024-02-23T09:37:53;100816.28;;;19.68;30.19
57600;BME280;43426;43.594;24.334;2024-02-23T09:40:18;100796.94;;;20.00;31.07
57600;BME280;43426;43.594;24.334;2024-02-23T09:42:43;100800.84;;;20.34;31.99
57600;BME280;43426;43.594;24.334;2024-02-23T09:45:15;100804.44;;;20.47;29.51
57600;BME280;43426;43.594;24.334;2024-02-23T09:47:40;100794.50;;;20.34;29.10
57600;BME280;43426;43.594;24.334;2024-02-23T09:50:06;100801.34;;;20.43;29.09
57600;BME280;43426;43.594;24.334;2024-02-23T09:52:33;100791.94;;;20.51;30.33
57600;BME280;43426;43.594;24.334;2024-02-23T09:54:59;100793.22;;;20.36;29.92
57600;BME280;43426;43.594;24.334;2024-02-23T09:57:24;100790.41;;;20.55;30.11
57600;BME280;43426;43.594;24.334;2024-02-23T09:59:49;100790.88;;;20.64;30.53
57600;BME280;43426;43.594;24.334;2024-02-23T10:02:16;100789.50;;;20.73;29.27
57600;BME280;43426;43.594;24.334;2024-02-23T10:04:42;100782.44;;;20.89;30.67
57600;BME280;43426;43.594;24.334;2024-02-23T10:07:14;100777.22;;;20.99;30.18
57600;BME280;43426;43.594;24.334;2024-02-23T10:09:40;100772.88;;;21.27;29.56
57600;BME280;43426;43.594;24.334;2024-02-23T10:12:05;100776.63;;;21.62;28.62
57600;BME280;43426;43.594;24.334;2024-02-23T10:14:31;100770.41;;;21.66;28.24
57600;BME280;43426;43.594;24.334;2024-02-23T10:16:56;100775.69;;;21.44;28.07
57600;BME280;43426;43.594;24.334;2024-02-23T10:19:22;100776.81;;;21.31;29.16
57600;BME280;43426;43.594;24.334;2024-02-23T10:21:53;100772.56;;;21.64;28.54
57600;BME280;43426;43.594;24.334;2024-02-23T10:24:19;100769.63;;;21.42;27.82
57600;BME280;43426;43.594;24.334;2024-02-23T10:26:44;100765.66;;;21.50;28.64
57600;BME280;43426;43.594;24.334;2024-02-23T10:29:09;100771.53;;;21.41;27.79
57600;BME280;43426;43.594;24.334;2024-02-23T10:31:35;100764.97;;;21.42;28.19
57600;BME280;43426;43.594;24.334;2024-02-23T10:34:08;100760.91;;;21.33;28.20
57600;BME280;43426;43.594;24.334;2024-02-23T10:36:42;100752.34;;;21.30;28.20
57600;BME280;43426;43.594;24.334;2024-02-23T10:39:08;100756.72;;;21.42;27.88
57600;BME280;43426;43.594;24.334;2024-02-23T10:41:37;100757.16;;;21.51;28.16
57600;BME280;43426;43.594;24.334;2024-02-23T10:44:04;100755.84;;;21.66;28.37
57600;BME280;43426;43.594;24.334;2024-02-23T10:46:31;100749.97;;;21.74;29.31
57600;BME280;43426;43.594;24.334;2024-02-23T10:48:56;100744.16;;;21.87;27.21
57600;BME280;43426;43.594;24.334;2024-02-23T10:51:24;100741.88;;;22.13;28.79
57600;BME280;43426;43.594;24.334;2024-02-23T10:53:49;100754.06;;;22.51;27.63
57600;BME280;43426;43.594;24.334;2024-02-23T10:56:15;100748.13;;;22.59;27.29
57600;BME280;43426;43.594;24.334;2024-02-23T10:58:40;100734.72;;;22.63;28.26
57600;BME280;43426;43.594;24.334;2024-02-23T11:01:06;100734.34;;;22.54;26.79
57600;BME280;43426;43.594;24.334;2024-02-23T11:03:33;100734.09;;;22.39;26.94
57600;BME280;43426;43.594;24.334;2024-02-23T11:06:00;100733.72;;;22.18;27.96
57600;BME280;43426;43.594;24.334;2024-02-23T11:08:29;100729.75;;;21.97;28.14
57600;BME280;43426;43.594;24.334;2024-02-23T11:10:54;100723.19;;;21.81;27.97
57600;BME280;43426;43.594;24.334;2024-02-23T11:13:29;100720.59;;;21.91;28.12
57600;BME280;43426;43.594;24.334;2024-02-23T11:16:00;100724.88;;;22.33;28.14
57600;BME280;43426;43.594;24.334;2024-02-23T11:18:29;100721.31;;;22.33;28.21
57600;BME280;43426;43.594;24.334;2024-02-23T11:20:55;100715.97;;;22.26;27.52
57600;BME280;43426;43.594;24.334;2024-02-23T11:23:21;100715.25;;;22.31;27.45
57600;BME280;43426;43.594;24.334;2024-02-23T11:26:03;100706.41;;;22.45;29.08
57600;BME280;43426;43.594;24.334;2024-02-23T11:28:29;100707.44;;;22.78;27.78
57600;BME280;43426;43.594;24.334;2024-02-23T11:30:54;100701.84;;;22.90;26.60
57600;BME280;43426;43.594;24.334;2024-02-23T11:33:26;100700.81;;;22.96;27.17
57600;BME280;43426;43.594;24.334;2024-02-23T11:35:51;100707.13;;;23.14;26.15
57600;BME280;43426;43.594;24.334;2024-02-23T11:38:17;100701.31;;;22.93;26.49
57600;BME280;43426;43.594;24.334;2024-02-23T11:40:43;100699.28;;;22.84;26.80
57600;BME280;43426;43.594;24.334;2024-02-23T11:43:08;100692.66;;;22.45;26.98
57600;BME280;43426;43.594;24.334;2024-02-23T11:45:35;100694.66;;;22.16;27.37
57600;BME280;43426;43.594;24.334;2024-02-23T11:48:00;100686.03;;;21.79;27.26
57600;BME280;43426;43.594;24.334;2024-02-23T11:50:26;100690.47;;;21.80;27.81
57600;BME280;43426;43.594;24.334;2024-02-23T11:52:51;100689.06;;;21.94;27.66
57600;BME280;43426;43.594;24.334;2024-02-23T11:55:19;100680.06;;;22.33;27.64
57600;BME280;43426;43.594;24.334;2024-02-23T11:57:48;100677.75;;;22.58;27.85
57600;BME280;43426;43.594;24.334;2024-02-23T12:00:13;100683.00;;;22.43;27.53
57600;BME280;43426;43.594;24.334;2024-02-23T12:02:39;100669.59;;;22.30;26.97
57600;BME280;43426;43.594;24.334;2024-02-23T12:05:04;100677.75;;;22.07;27.54
57600;BME280;43426;43.594;24.334;2024-02-23T12:07:30;100675.34;;;21.65;27.55
57600;BME280;43426;43.594;24.334;2024-02-23T12:09:56;100675.31;;;21.48;27.30
57600;BME280;43426;43.594;24.334;2024-02-23T12:12:21;100664.81;;;21.74;28.21
57600;BME280;43426;43.594;24.334;2024-02-23T12:14:47;100664.25;;;22.23;28.37
57600;BME280;43426;43.594;24.334;2024-02-23T12:17:12;100668.25;;;22.49;27.05
57600;BME280;43426;43.594;24.334;2024-02-23T12:19:40;100666.00;;;22.46;27.79
57600;BME280;43426;43.594;24.334;2024-02-23T12:22:06;100664.50;;;22.38;27.46
57600;BME280;43426;43.594;24.334;2024-02-23T12:24:32;100662.91;;;22.25;28.10
57600;BME280;43426;43.594;24.334;2024-02-23T12:26:57;100649.50;;;22.29;26.56
57600;BME280;43426;43.594;24.334;2024-02-23T12:29:23;100647.94;;;22.72;27.21
57600;BME280;43426;43.594;24.334;2024-02-23T12:31:48;100645.13;;;22.89;26.96
57600;BME280;43426;43.594;24.334;2024-02-23T12:34:14;100646.03;;;22.73;26.13
57600;BME280;43426;43.594;24.334;2024-02-23T12:36:39;100646.97;;;22.61;25.94